Latest METARs, TAFs and NOTAMs for SKCL


---------------------------------------------------------------------------
	(OBSERVATIONS)
SKCL 281500Z 07003KT 7000 SCT020 26/19 A2996 RMK HZ=
SKCL 281400Z 09003KT 7000 FEW020 25/18 A2998 RMK HZ=
SKCL 281300Z 12003KT 6000 FEW020 SCT070 22/18 A2997 RMK HZ=
---------------------------------------------------------------------------
	(TERMINAL AREA FORECAST)
SKCL 281000Z 281212 VRB02KT 9999 FEW017 SCT100
    PROB30 TEMPO 2817/2822 8000 MIFG SCT013 BKN080
    TEMPO 2900/2902 8000 VCSH SCT017
    TX30/2819Z TN19/2911Z=
---------------------------------------------------------------------------
	(NOTAMS)


SKCL A2324/14 MOV AREA WO VERTICAL SIGNALLING, EXER CTN. H24,
    15 AUG 21:30 2014 UNTIL 30 NOV 23:59 2014. CREATED: 15 AUG
    22:18 2014

SKCL A3023/14 FLIGHT PLAN PROCESSING AND FILING FPL LTD DUE TO
    FAILURE CLO (CALI)FDP (FLIGHT DATA PROCESSING. 08 OCT 15:20
    2014 UNTIL 08 JAN 23:59 2015 ESTIMATED. CREATED: 01 NOV 01:42
    2014

SKCL A3153/14 RWY 01/19 TURNING BAY LTD, ACFT PROHIBITED PARALLEL
    OR ONE SURPASSES THE OTHER ACFT, EXER CTN. H24, 22 OCT 14:15
    2014 UNTIL 31 JAN 23:59 2015. CREATED: 22 OCT 14:17 2014

SKCL A3154/14 APRON, CARGO APRON AND DECONGESTION APRON WIP,
    EXER CTN. H24, 22 OCT 14:25 2014 UNTIL 31 JAN 23:59 2015.
    CREATED: 22 OCT 14:22 2014

SKCL A3155/14 TWY A,B,C,C1,C2,D,E,F,G WIP, EXER CTN. H24, 22
    OCT 14:30 2014 UNTIL 31 JAN 23:59 2015. CREATED: 22 OCT 14:26
    2014

SKCL A3174/14 RWY 01/19 WIP, EXER CTN. 0530-1030, 24 OCT 05:30
    2014 UNTIL 30 DEC 10:30 2014. CREATED: 23 OCT 18:05 2014

SKCL A3323/14 SEQUENCED FLG LGT RWY 01 U/S. 04 NOV 13:59 2014
    UNTIL 04 FEB 23:59 2015 ESTIMATED. CREATED: 04 NOV 13:59
    2014

SKCL A3571/14 AD CLSD. 0600-0700, 30 NOV 06:00 2014 UNTIL 30
    NOV 07:00 2014. CREATED: 25 NOV 23:01 2014

SKCL V0133/14 [DOD PROCEDURAL NOTAM] INSTRUMENT APPROACH PROCEDURE
    NOT AUTHORIZED DUE TO HOST UPDATE: ILS RWY 01 AMDT 1, VOR
    RWY 19 ORIG, ANKIN 5A, 5B DEP, BUN 6A DEP, BUN 6C DEP NA
    UFN. 17 OCT 00:44 2014 UNTIL 08 JAN 23:59 2015. CREATED:
    17 OCT 00:47 2014

---------------------------------------------------------------------------